sensor_id;sensor_type;location;lat;lon;timestamp;temperature;humidity
77829;DHT22;67019;51.034;3.728;2023-03-30T00:02:43;14.30;78.00
77829;DHT22;67019;51.034;3.728;2023-03-30T01:15:14;13.40;83.20
77829;DHT22;67019;51.034;3.728;2023-03-30T01:48:24;13.50;82.60
77829;DHT22;67019;51.034;3.728;2023-03-30T01:50:59;13.60;81.40
77829;DHT22;67019;51.034;3.728;2023-03-30T01:53:34;13.20;82.90
77829;DHT22;67019;51.034;3.728;2023-03-30T01:56:12;13.10;83.80
77829;DHT22;67019;51.034;3.728;2023-03-30T01:58:51;13.00;83.70
77829;DHT22;67019;51.034;3.728;2023-03-30T02:01:16;13.10;83.50
77829;DHT22;67019;51.034;3.728;2023-03-30T02:03:48;13.10;83.50
77829;DHT22;67019;51.034;3.728;2023-03-30T02:06:35;13.10;83.20
77829;DHT22;67019;51.034;3.728;2023-03-30T02:09:10;13.10;83.30
77829;DHT22;67019;51.034;3.728;2023-03-30T02:11:40;13.10;82.90
77829;DHT22;67019;51.034;3.728;2023-03-30T02:14:09;13.10;83.10
77829;DHT22;67019;51.034;3.728;2023-03-30T02:16:40;13.20;83.10
77829;DHT22;67019;51.034;3.728;2023-03-30T02:19:08;13.10;83.10
77829;DHT22;67019;51.034;3.728;2023-03-30T02:21:35;13.20;82.80
77829;DHT22;67019;51.034;3.728;2023-03-30T02:24:05;13.10;82.90
77829;DHT22;67019;51.034;3.728;2023-03-30T02:26:33;13.10;83.10
77829;DHT22;67019;51.034;3.728;2023-03-30T02:29:02;13.10;83.10
77829;DHT22;67019;51.034;3.728;2023-03-30T02:31:30;13.10;83.90
77829;DHT22;67019;51.034;3.728;2023-03-30T02:45:38;13.00;85.40
77829;DHT22;67019;51.034;3.728;2023-03-30T02:47:35;13.00;85.30
77829;DHT22;67019;51.034;3.728;2023-03-30T02:50:03;13.00;85.90
77829;DHT22;67019;51.034;3.728;2023-03-30T02:52:39;13.00;86.30
77829;DHT22;67019;51.034;3.728;2023-03-30T03:03:18;13.40;84.00
77829;DHT22;67019;51.034;3.728;2023-03-30T03:05:46;13.30;84.30
77829;DHT22;67019;51.034;3.728;2023-03-30T03:08:16;13.00;85.30
77829;DHT22;67019;51.034;3.728;2023-03-30T03:10:44;12.90;86.00
77829;DHT22;67019;51.034;3.728;2023-03-30T03:13:12;12.90;86.90
77829;DHT22;67019;51.034;3.728;2023-03-30T03:15:40;12.90;87.10
77829;DHT22;67019;51.034;3.728;2023-03-30T03:18:15;12.90;87.20
77829;DHT22;67019;51.034;3.728;2023-03-30T03:20:39;13.30;86.60
77829;DHT22;67019;51.034;3.728;2023-03-30T03:23:07;13.00;87.10
77829;DHT22;67019;51.034;3.728;2023-03-30T03:25:34;13.00;87.10
77829;DHT22;67019;51.034;3.728;2023-03-30T03:28:02;13.00;87.60
77829;DHT22;67019;51.034;3.728;2023-03-30T03:30:30;13.00;87.60
77829;DHT22;67019;51.034;3.728;2023-03-30T03:32:58;13.10;87.40
77829;DHT22;67019;51.034;3.728;2023-03-30T03:35:25;13.10;88.00
77829;DHT22;67019;51.034;3.728;2023-03-30T03:37:54;13.30;88.40
77829;DHT22;67019;51.034;3.728;2023-03-30T03:40:23;12.90;89.90
77829;DHT22;67019;51.034;3.728;2023-03-30T03:42:51;12.90;90.40
77829;DHT22;67019;51.034;3.728;2023-03-30T03:45:18;12.80;90.70
77829;DHT22;67019;51.034;3.728;2023-03-30T03:47:48;12.90;90.90
77829;DHT22;67019;51.034;3.728;2023-03-30T03:50:15;12.80;91.80
77829;DHT22;67019;51.034;3.728;2023-03-30T03:52:44;12.80;92.10
77829;DHT22;67019;51.034;3.728;2023-03-30T03:55:11;12.60;92.60
77829;DHT22;67019;51.034;3.728;2023-03-30T03:57:39;12.60;93.10
77829;DHT22;67019;51.034;3.728;2023-03-30T04:00:07;12.50;93.70
77829;DHT22;67019;51.034;3.728;2023-03-30T04:02:43;12.40;93.90
77829;DHT22;67019;51.034;3.728;2023-03-30T04:05:10;12.40;94.20
77829;DHT22;67019;51.034;3.728;2023-03-30T04:07:38;12.30;94.50
77829;DHT22;67019;51.034;3.728;2023-03-30T04:10:07;12.30;94.80
77829;DHT22;67019;51.034;3.728;2023-03-30T04:12:35;12.30;94.90
77829;DHT22;67019;51.034;3.728;2023-03-30T04:15:05;12.30;94.80
77829;DHT22;67019;51.034;3.728;2023-03-30T04:17:34;12.20;95.20
77829;DHT22;67019;51.034;3.728;2023-03-30T04:20:03;12.20;95.60
77829;DHT22;67019;51.034;3.728;2023-03-30T04:22:32;12.20;95.80
77829;DHT22;67019;51.034;3.728;2023-03-30T04:25:02;12.20;96.30
77829;DHT22;67019;51.034;3.728;2023-03-30T04:27:30;12.20;96.20
77829;DHT22;67019;51.034;3.728;2023-03-30T04:29:58;12.10;96.20
77829;DHT22;67019;51.034;3.728;2023-03-30T04:32:27;12.10;96.50
77829;DHT22;67019;51.034;3.728;2023-03-30T04:34:56;12.00;96.60
77829;DHT22;67019;51.034;3.728;2023-03-30T04:37:24;11.90;97.00
77829;DHT22;67019;51.034;3.728;2023-03-30T04:39:53;11.90;97.60
77829;DHT22;67019;51.034;3.728;2023-03-30T04:42:23;11.80;98.00
77829;DHT22;67019;51.034;3.728;2023-03-30T04:44:53;11.70;98.60
77829;DHT22;67019;51.034;3.728;2023-03-30T04:47:20;11.60;98.80
77829;DHT22;67019;51.034;3.728;2023-03-30T04:49:48;11.50;99.20
77829;DHT22;67019;51.034;3.728;2023-03-30T04:52:18;11.50;99.00
77829;DHT22;67019;51.034;3.728;2023-03-30T04:54:46;11.50;99.20
77829;DHT22;67019;51.034;3.728;2023-03-30T04:57:14;11.50;99.30
77829;DHT22;67019;51.034;3.728;2023-03-30T04:59:46;11.40;99.20
77829;DHT22;67019;51.034;3.728;2023-03-30T05:02:13;11.40;99.90
77829;DHT22;67019;51.034;3.728;2023-03-30T05:04:43;11.40;98.90
77829;DHT22;67019;51.034;3.728;2023-03-30T05:07:11;11.60;96.90
77829;DHT22;67019;51.034;3.728;2023-03-30T05:09:39;11.60;97.20
77829;DHT22;67019;51.034;3.728;2023-03-30T05:12:06;11.60;97.10
77829;DHT22;67019;51.034;3.728;2023-03-30T05:14:34;11.50;97.00
77829;DHT22;67019;51.034;3.728;2023-03-30T05:17:01;11.50;97.20
77829;DHT22;67019;51.034;3.728;2023-03-30T05:19:33;11.60;96.50
77829;DHT22;67019;51.034;3.728;2023-03-30T05:22:01;11.60;96.60
77829;DHT22;67019;51.034;3.728;2023-03-30T05:24:32;11.70;95.80
77829;DHT22;67019;51.034;3.728;2023-03-30T05:27:00;11.70;95.70
77829;DHT22;67019;51.034;3.728;2023-03-30T05:29:29;11.70;95.60
77829;DHT22;67019;51.034;3.728;2023-03-30T05:31:58;11.60;95.90
77829;DHT22;67019;51.034;3.728;2023-03-30T05:34:28;11.50;95.90
77829;DHT22;67019;51.034;3.728;2023-03-30T05:36:56;11.50;95.80
77829;DHT22;67019;51.034;3.728;2023-03-30T05:39:23;11.60;95.50
77829;DHT22;67019;51.034;3.728;2023-03-30T05:41:52;11.60;95.60
77829;DHT22;67019;51.034;3.728;2023-03-30T05:44:20;11.60;95.50
77829;DHT22;67019;51.034;3.728;2023-03-30T05:46:47;11.60;95.70
77829;DHT22;67019;51.034;3.728;2023-03-30T05:49:15;11.60;95.20
77829;DHT22;67019;51.034;3.728;2023-03-30T05:51:43;11.60;94.80
77829;DHT22;67019;51.034;3.728;2023-03-30T05:54:11;11.70;94.80
77829;DHT22;67019;51.034;3.728;2023-03-30T05:56:39;11.70;94.60
77829;DHT22;67019;51.034;3.728;2023-03-30T05:59:08;11.70;94.30
77829;DHT22;67019;51.034;3.728;2023-03-30T06:01:37;11.70;94.20
77829;DHT22;67019;51.034;3.728;2023-03-30T06:04:06;11.70;94.10
77829;DHT22;67019;51.034;3.728;2023-03-30T06:06:34;11.80;94.00
77829;DHT22;67019;51.034;3.728;2023-03-30T06:09:02;11.80;94.00
77829;DHT22;67019;51.034;3.728;2023-03-30T06:11:30;12.80;94.20
77829;DHT22;67019;51.034;3.728;2023-03-30T06:13:58;11.70;94.10
77829;DHT22;67019;51.034;3.728;2023-03-30T06:16:25;11.70;94.00
77829;DHT22;67019;51.034;3.728;2023-03-30T06:18:54;11.70;94.10
77829;DHT22;67019;51.034;3.728;2023-03-30T06:21:23;11.70;94.30
77829;DHT22;67019;51.034;3.728;2023-03-30T06:23:51;11.70;94.30
77829;DHT22;67019;51.034;3.728;2023-03-30T06:26:19;11.70;94.10
77829;DHT22;67019;51.034;3.728;2023-03-30T06:28:47;11.80;94.30
77829;DHT22;67019;51.034;3.728;2023-03-30T06:31:14;11.80;94.00
77829;DHT22;67019;51.034;3.728;2023-03-30T06:33:43;11.80;93.90
77829;DHT22;67019;51.034;3.728;2023-03-30T06:36:12;11.80;93.70
77829;DHT22;67019;51.034;3.728;2023-03-30T06:38:40;11.80;93.80
77829;DHT22;67019;51.034;3.728;2023-03-30T06:41:09;11.70;94.00
77829;DHT22;67019;51.034;3.728;2023-03-30T06:43:38;11.80;94.00
77829;DHT22;67019;51.034;3.728;2023-03-30T06:46:07;11.80;93.90
77829;DHT22;67019;51.034;3.728;2023-03-30T06:48:34;11.70;93.80
77829;DHT22;67019;51.034;3.728;2023-03-30T06:51:02;11.70;94.00
77829;DHT22;67019;51.034;3.728;2023-03-30T06:53:30;11.60;94.10
77829;DHT22;67019;51.034;3.728;2023-03-30T06:55:59;11.70;94.50
77829;DHT22;67019;51.034;3.728;2023-03-30T06:58:28;11.60;94.40
77829;DHT22;67019;51.034;3.728;2023-03-30T07:00:56;11.60;94.80
77829;DHT22;67019;51.034;3.728;2023-03-30T07:03:24;11.60;94.80
77829;DHT22;67019;51.034;3.728;2023-03-30T07:05:52;11.60;94.80
77829;DHT22;67019;51.034;3.728;2023-03-30T07:08:21;11.60;94.60
77829;DHT22;67019;51.034;3.728;2023-03-30T07:10:48;11.60;94.60
77829;DHT22;67019;51.034;3.728;2023-03-30T07:13:16;11.60;94.50
77829;DHT22;67019;51.034;3.728;2023-03-30T07:15:45;11.60;94.50
77829;DHT22;67019;51.034;3.728;2023-03-30T07:18:13;11.70;94.60
77829;DHT22;67019;51.034;3.728;2023-03-30T07:20:41;11.70;94.40
77829;DHT22;67019;51.034;3.728;2023-03-30T07:23:10;11.80;94.40
77829;DHT22;67019;51.034;3.728;2023-03-30T07:25:38;11.80;94.20
77829;DHT22;67019;51.034;3.728;2023-03-30T07:28:07;11.80;94.50
77829;DHT22;67019;51.034;3.728;2023-03-30T07:30:36;11.90;94.30
77829;DHT22;67019;51.034;3.728;2023-03-30T07:33:04;11.80;94.40
77829;DHT22;67019;51.034;3.728;2023-03-30T07:35:32;12.00;94.10
77829;DHT22;67019;51.034;3.728;2023-03-30T07:37:59;12.10;93.50
77829;DHT22;67019;51.034;3.728;2023-03-30T07:40:27;12.20;93.20
77829;DHT22;67019;51.034;3.728;2023-03-30T07:42:55;12.20;93.00
77829;DHT22;67019;51.034;3.728;2023-03-30T07:45:23;12.20;92.90
77829;DHT22;67019;51.034;3.728;2023-03-30T07:47:51;12.20;92.90
77829;DHT22;67019;51.034;3.728;2023-03-30T07:50:18;12.20;92.90
77829;DHT22;67019;51.034;3.728;2023-03-30T07:52:47;12.20;93.00
77829;DHT22;67019;51.034;3.728;2023-03-30T07:55:16;12.20;92.70
77829;DHT22;67019;51.034;3.728;2023-03-30T07:57:45;12.20;92.30
77829;DHT22;67019;51.034;3.728;2023-03-30T08:00:13;12.30;92.30
77829;DHT22;67019;51.034;3.728;2023-03-30T08:02:41;12.30;92.00
77829;DHT22;67019;51.034;3.728;2023-03-30T08:05:10;12.30;92.30
77829;DHT22;67019;51.034;3.728;2023-03-30T08:07:37;11.10;91.90
77829;DHT22;67019;51.034;3.728;2023-03-30T08:10:05;12.50;91.70
77829;DHT22;67019;51.034;3.728;2023-03-30T08:12:33;12.60;91.30
77829;DHT22;67019;51.034;3.728;2023-03-30T08:15:02;12.50;91.20
77829;DHT22;67019;51.034;3.728;2023-03-30T08:17:30;12.50;91.00
77829;DHT22;67019;51.034;3.728;2023-03-30T08:19:58;12.70;91.20
77829;DHT22;67019;51.034;3.728;2023-03-30T08:22:27;12.90;90.70
77829;DHT22;67019;51.034;3.728;2023-03-30T08:24:57;12.90;90.30
77829;DHT22;67019;51.034;3.728;2023-03-30T08:27:24;12.90;90.50
77829;DHT22;67019;51.034;3.728;2023-03-30T08:29:52;12.90;90.80
77829;DHT22;67019;51.034;3.728;2023-03-30T08:32:20;12.60;91.00
77829;DHT22;67019;51.034;3.728;2023-03-30T08:34:47;12.80;90.90
77829;DHT22;67019;51.034;3.728;2023-03-30T08:37:16;12.70;90.90
77829;DHT22;67019;51.034;3.728;2023-03-30T08:39:44;12.70;90.70
77829;DHT22;67019;51.034;3.728;2023-03-30T08:44:56;13.00;90.00
77829;DHT22;67019;51.034;3.728;2023-03-30T08:47:31;12.90;90.00
77829;DHT22;67019;51.034;3.728;2023-03-30T08:50:21;12.90;90.00
77829;DHT22;67019;51.034;3.728;2023-03-30T08:52:46;13.00;90.00
77829;DHT22;67019;51.034;3.728;2023-03-30T08:55:20;12.90;90.30
77829;DHT22;67019;51.034;3.728;2023-03-30T08:58:01;12.80;90.60
77829;DHT22;67019;51.034;3.728;2023-03-30T09:00:39;12.60;91.90
77829;DHT22;67019;51.034;3.728;2023-03-30T09:03:25;12.30;93.00
77829;DHT22;67019;51.034;3.728;2023-03-30T09:05:54;12.30;93.10
77829;DHT22;67019;51.034;3.728;2023-03-30T09:08:25;12.40;93.00
77829;DHT22;67019;51.034;3.728;2023-03-30T09:11:00;12.50;93.10
77829;DHT22;67019;51.034;3.728;2023-03-30T09:13:34;12.60;92.50
77829;DHT22;67019;51.034;3.728;2023-03-30T09:16:15;12.50;92.80
77829;DHT22;67019;51.034;3.728;2023-03-30T09:18:44;12.70;92.90
77829;DHT22;67019;51.034;3.728;2023-03-30T09:21:13;12.70;93.00
77829;DHT22;67019;51.034;3.728;2023-03-30T09:23:41;12.70;92.80
77829;DHT22;67019;51.034;3.728;2023-03-30T09:29:10;12.90;91.00
77829;DHT22;67019;51.034;3.728;2023-03-30T09:31:50;12.90;90.50
77829;DHT22;67019;51.034;3.728;2023-03-30T09:34:28;13.00;91.00
77829;DHT22;67019;51.034;3.728;2023-03-30T09:37:02;13.20;90.80
77829;DHT22;67019;51.034;3.728;2023-03-30T09:39:30;13.10;90.40
77829;DHT22;67019;51.034;3.728;2023-03-30T09:44:52;13.10;90.70
77829;DHT22;67019;51.034;3.728;2023-03-30T09:47:28;13.10;90.40
77829;DHT22;67019;51.034;3.728;2023-03-30T09:50:03;13.00;90.70
77829;DHT22;67019;51.034;3.728;2023-03-30T09:52:29;13.10;90.60
77829;DHT22;67019;51.034;3.728;2023-03-30T09:55:23;13.10;90.00
77829;DHT22;67019;51.034;3.728;2023-03-30T09:57:32;13.20;90.30
77829;DHT22;67019;51.034;3.728;2023-03-30T10:00:00;13.20;90.10
77829;DHT22;67019;51.034;3.728;2023-03-30T10:02:29;13.20;90.10
77829;DHT22;67019;51.034;3.728;2023-03-30T10:05:00;13.10;90.00
77829;DHT22;67019;51.034;3.728;2023-03-30T10:07:36;13.20;89.90
77829;DHT22;67019;51.034;3.728;2023-03-30T10:10:15;13.50;89.00
77829;DHT22;67019;51.034;3.728;2023-03-30T10:12:44;13.30;88.50
77829;DHT22;67019;51.034;3.728;2023-03-30T10:15:16;13.20;88.50
77829;DHT22;67019;51.034;3.728;2023-03-30T10:17:46;13.20;89.30
77829;DHT22;67019;51.034;3.728;2023-03-30T10:20:29;13.40;89.50
77829;DHT22;67019;51.034;3.728;2023-03-30T10:23:04;13.60;89.30
77829;DHT22;67019;51.034;3.728;2023-03-30T10:25:29;13.50;89.40
77829;DHT22;67019;51.034;3.728;2023-03-30T10:28:00;13.60;89.40
77829;DHT22;67019;51.034;3.728;2023-03-30T10:30:29;13.60;89.90
77829;DHT22;67019;51.034;3.728;2023-03-30T10:33:00;13.60;89.00
77829;DHT22;67019;51.034;3.728;2023-03-30T10:35:33;13.60;88.50
77829;DHT22;67019;51.034;3.728;2023-03-30T10:38:04;13.70;87.60
77829;DHT22;67019;51.034;3.728;2023-03-30T10:40:40;14.00;88.10
77829;DHT22;67019;51.034;3.728;2023-03-30T10:43:22;14.10;86.50
77829;DHT22;67019;51.034;3.728;2023-03-30T10:45:55;14.10;84.80
77829;DHT22;67019;51.034;3.728;2023-03-30T10:48:36;13.80;87.00
77829;DHT22;67019;51.034;3.728;2023-03-30T10:56:39;13.90;85.50
77829;DHT22;67019;51.034;3.728;2023-03-30T11:02:25;14.40;83.30
77829;DHT22;67019;51.034;3.728;2023-03-30T11:05:15;14.60;83.20
77829;DHT22;67019;51.034;3.728;2023-03-30T11:07:52;14.40;82.10
77829;DHT22;67019;51.034;3.728;2023-03-30T11:10:26;14.00;84.00
77829;DHT22;67019;51.034;3.728;2023-03-30T11:13:12;14.10;83.10
77829;DHT22;67019;51.034;3.728;2023-03-30T11:16:02;14.10;81.80
77829;DHT22;67019;51.034;3.728;2023-03-30T11:23:57;13.80;83.80
77829;DHT22;67019;51.034;3.728;2023-03-30T11:29:47;13.30;90.40
77829;DHT22;67019;51.034;3.728;2023-03-30T11:35:16;13.40;88.90
77829;DHT22;67019;51.034;3.728;2023-03-30T11:38:10;13.70;89.40
77829;DHT22;67019;51.034;3.728;2023-03-30T11:40:57;14.00;86.70
77829;DHT22;67019;51.034;3.728;2023-03-30T11:43:28;14.00;84.00
77829;DHT22;67019;51.034;3.728;2023-03-30T11:51:49;14.70;81.70
77829;DHT22;67019;51.034;3.728;2023-03-30T11:57:23;14.70;80.40
77829;DHT22;67019;51.034;3.728;2023-03-30T11:59:46;13.80;79.60
77829;DHT22;67019;51.034;3.728;2023-03-30T12:02:25;14.90;80.70
77829;DHT22;67019;51.034;3.728;2023-03-30T12:05:05;15.10;79.00
77829;DHT22;67019;51.034;3.728;2023-03-30T12:07:37;15.30;78.60
77829;DHT22;67019;51.034;3.728;2023-03-30T12:10:04;15.50;76.30
77829;DHT22;67019;51.034;3.728;2023-03-30T12:12:32;15.20;76.80
77829;DHT22;67019;51.034;3.728;2023-03-30T12:15:25;15.00;76.90
77829;DHT22;67019;51.034;3.728;2023-03-30T12:18:01;14.80;78.90
77829;DHT22;67019;51.034;3.728;2023-03-30T12:23:27;13.10;92.80
77829;DHT22;67019;51.034;3.728;2023-03-30T12:34:18;12.60;96.90
77829;DHT22;67019;51.034;3.728;2023-03-30T12:37:06;12.70;96.30
77829;DHT22;67019;51.034;3.728;2023-03-30T12:39:55;12.80;95.10
77829;DHT22;67019;51.034;3.728;2023-03-30T12:42:32;13.00;95.30
77829;DHT22;67019;51.034;3.728;2023-03-30T12:45:32;13.30;93.60
77829;DHT22;67019;51.034;3.728;2023-03-30T12:56:47;13.80;91.50
77829;DHT22;67019;51.034;3.728;2023-03-30T12:59:41;14.00;90.10
77829;DHT22;67019;51.034;3.728;2023-03-30T13:04:54;14.20;88.40
77829;DHT22;67019;51.034;3.728;2023-03-30T13:07:28;14.50;87.70
77829;DHT22;67019;51.034;3.728;2023-03-30T13:09:59;14.60;87.10
77829;DHT22;67019;51.034;3.728;2023-03-30T13:12:37;14.30;87.00
77829;DHT22;67019;51.034;3.728;2023-03-30T13:17:46;14.20;87.90
77829;DHT22;67019;51.034;3.728;2023-03-30T13:20:19;14.30;86.10
77829;DHT22;67019;51.034;3.728;2023-03-30T13:22:59;14.40;87.10
77829;DHT22;67019;51.034;3.728;2023-03-30T13:25:36;14.50;84.90
77829;DHT22;67019;51.034;3.728;2023-03-30T13:28:00;14.70;84.00
77829;DHT22;67019;51.034;3.728;2023-03-30T13:30:28;14.80;84.10
77829;DHT22;67019;51.034;3.728;2023-03-30T13:33:13;14.70;83.90
77829;DHT22;67019;51.034;3.728;2023-03-30T13:41:31;15.20;82.40
77829;DHT22;67019;51.034;3.728;2023-03-30T13:44:21;15.10;81.40
77829;DHT22;67019;51.034;3.728;2023-03-30T13:52:20;14.80;82.90
77829;DHT22;67019;51.034;3.728;2023-03-30T13:54:47;14.80;82.40
77829;DHT22;67019;51.034;3.728;2023-03-30T13:57:31;14.70;83.40
77829;DHT22;67019;51.034;3.728;2023-03-30T13:59:57;14.80;83.30
77829;DHT22;67019;51.034;3.728;2023-03-30T14:02:30;15.30;82.00
77829;DHT22;67019;51.034;3.728;2023-03-30T14:04:52;15.10;82.10
77829;DHT22;67019;51.034;3.728;2023-03-30T14:07:21;15.20;80.80
77829;DHT22;67019;51.034;3.728;2023-03-30T14:12:34;15.50;78.60
77829;DHT22;67019;51.034;3.728;2023-03-30T14:15:50;15.60;78.60
77829;DHT22;67019;51.034;3.728;2023-03-30T14:17:33;15.20;78.10
77829;DHT22;67019;51.034;3.728;2023-03-30T14:22:39;15.10;79.30
77829;DHT22;67019;51.034;3.728;2023-03-30T14:27:51;15.20;80.30
77829;DHT22;67019;51.034;3.728;2023-03-30T14:30:24;15.10;81.30
77829;DHT22;67019;51.034;3.728;2023-03-30T14:33:11;14.80;80.50
77829;DHT22;67019;51.034;3.728;2023-03-30T14:35:51;14.80;79.40
77829;DHT22;67019;51.034;3.728;2023-03-30T14:38:23;14.90;79.90
77829;DHT22;67019;51.034;3.728;2023-03-30T14:40:52;14.70;79.70
77829;DHT22;67019;51.034;3.728;2023-03-30T14:43:22;14.70;80.10
77829;DHT22;67019;51.034;3.728;2023-03-30T14:45:52;15.10;80.50
77829;DHT22;67019;51.034;3.728;2023-03-30T14:48:29;15.40;78.80
77829;DHT22;67019;51.034;3.728;2023-03-30T14:50:58;15.60;78.60
77829;DHT22;67019;51.034;3.728;2023-03-30T14:53:27;15.30;79.00
77829;DHT22;67019;51.034;3.728;2023-03-30T14:55:58;15.10;79.10
77829;DHT22;67019;51.034;3.728;2023-03-30T14:58:30;15.80;77.70
77829;DHT22;67019;51.034;3.728;2023-03-30T15:01:04;16.00;76.80
77829;DHT22;67019;51.034;3.728;2023-03-30T15:03:32;16.20;76.10
77829;DHT22;67019;51.034;3.728;2023-03-30T15:06:03;16.20;75.80
77829;DHT22;67019;51.034;3.728;2023-03-30T15:08:34;16.30;76.20
77829;DHT22;67019;51.034;3.728;2023-03-30T15:11:10;16.00;77.40
77829;DHT22;67019;51.034;3.728;2023-03-30T15:13:43;15.60;78.60
77829;DHT22;67019;51.034;3.728;2023-03-30T15:16:20;15.80;78.60
77829;DHT22;67019;51.034;3.728;2023-03-30T15:18:49;16.00;77.40
77829;DHT22;67019;51.034;3.728;2023-03-30T15:21:17;16.10;78.30
77829;DHT22;67019;51.034;3.728;2023-03-30T15:23:47;15.70;77.20
77829;DHT22;67019;51.034;3.728;2023-03-30T15:26:17;15.30;78.10
77829;DHT22;67019;51.034;3.728;2023-03-30T15:28:47;15.20;78.60
77829;DHT22;67019;51.034;3.728;2023-03-30T15:31:15;14.90;80.20
77829;DHT22;67019;51.034;3.728;2023-03-30T15:33:52;14.60;81.50
77829;DHT22;67019;51.034;3.728;2023-03-30T15:36:38;14.80;81.20
77829;DHT22;67019;51.034;3.728;2023-03-30T15:39:21;16.20;77.70
77829;DHT22;67019;51.034;3.728;2023-03-30T15:44:38;15.20;80.40
77829;DHT22;67019;51.034;3.728;2023-03-30T15:47:17;14.90;82.20
77829;DHT22;67019;51.034;3.728;2023-03-30T15:49:43;14.90;82.40
77829;DHT22;67019;51.034;3.728;2023-03-30T15:52:17;14.80;82.40
77829;DHT22;67019;51.034;3.728;2023-03-30T15:54:51;14.90;82.80
77829;DHT22;67019;51.034;3.728;2023-03-30T15:57:20;15.00;82.00
77829;DHT22;67019;51.034;3.728;2023-03-30T16:00:05;15.40;80.20
77829;DHT22;67019;51.034;3.728;2023-03-30T16:02:39;15.50;79.10
77829;DHT22;67019;51.034;3.728;2023-03-30T16:05:20;15.30;80.20
77829;DHT22;67019;51.034;3.728;2023-03-30T16:07:38;15.30;80.20
77829;DHT22;67019;51.034;3.728;2023-03-30T16:10:12;15.80;78.30
77829;DHT22;67019;51.034;3.728;2023-03-30T16:12:42;16.50;74.10
77829;DHT22;67019;51.034;3.728;2023-03-30T16:15:16;16.70;74.30
77829;DHT22;67019;51.034;3.728;2023-03-30T16:17:46;16.70;73.60
77829;DHT22;67019;51.034;3.728;2023-03-30T16:20:16;16.80;71.00
77829;DHT22;67019;51.034;3.728;2023-03-30T16:22:44;16.70;70.70
77829;DHT22;67019;51.034;3.728;2023-03-30T16:25:17;16.40;71.00
77829;DHT22;67019;51.034;3.728;2023-03-30T16:27:45;16.50;69.90
77829;DHT22;67019;51.034;3.728;2023-03-30T16:30:32;17.40;69.10
77829;DHT22;67019;51.034;3.728;2023-03-30T16:32:46;16.10;72.50
77829;DHT22;67019;51.034;3.728;2023-03-30T16:35:14;16.00;73.40
77829;DHT22;67019;51.034;3.728;2023-03-30T16:37:41;16.40;72.40
77829;DHT22;67019;51.034;3.728;2023-03-30T16:42:43;16.90;70.10
77829;DHT22;67019;51.034;3.728;2023-03-30T16:45:10;17.00;71.00
77829;DHT22;67019;51.034;3.728;2023-03-30T16:47:38;16.30;72.50
77829;DHT22;67019;51.034;3.728;2023-03-30T16:50:13;16.40;72.90
77829;DHT22;67019;51.034;3.728;2023-03-30T16:52:37;15.60;74.70
77829;DHT22;67019;51.034;3.728;2023-03-30T16:55:04;15.20;76.40
77829;DHT22;67019;51.034;3.728;2023-03-30T16:57:32;14.80;77.50
77829;DHT22;67019;51.034;3.728;2023-03-30T17:00:00;14.70;78.10
77829;DHT22;67019;51.034;3.728;2023-03-30T17:02:27;14.80;77.80
77829;DHT22;67019;51.034;3.728;2023-03-30T17:04:56;14.80;78.10
77829;DHT22;67019;51.034;3.728;2023-03-30T17:07:24;14.90;78.40
77829;DHT22;67019;51.034;3.728;2023-03-30T17:09:53;14.80;78.60
77829;DHT22;67019;51.034;3.728;2023-03-30T17:12:22;14.50;79.40
77829;DHT22;67019;51.034;3.728;2023-03-30T17:14:50;14.50;79.70
77829;DHT22;67019;51.034;3.728;2023-03-30T17:17:17;14.50;80.50
77829;DHT22;67019;51.034;3.728;2023-03-30T17:19:46;14.60;79.80
77829;DHT22;67019;51.034;3.728;2023-03-30T17:22:17;14.50;79.90
77829;DHT22;67019;51.034;3.728;2023-03-30T17:24:45;14.40;81.10
77829;DHT22;67019;51.034;3.728;2023-03-30T17:27:13;14.30;81.50
77829;DHT22;67019;51.034;3.728;2023-03-30T17:29:44;14.10;82.90
77829;DHT22;67019;51.034;3.728;2023-03-30T17:32:12;14.10;82.80
77829;DHT22;67019;51.034;3.728;2023-03-30T17:34:39;14.00;83.90
77829;DHT22;67019;51.034;3.728;2023-03-30T17:37:08;14.00;83.80
77829;DHT22;67019;51.034;3.728;2023-03-30T17:39:37;13.90;84.20
77829;DHT22;67019;51.034;3.728;2023-03-30T17:42:07;13.80;84.90
77829;DHT22;67019;51.034;3.728;2023-03-30T17:44:37;13.80;85.10
77829;DHT22;67019;51.034;3.728;2023-03-30T17:47:05;13.70;85.50
77829;DHT22;67019;51.034;3.728;2023-03-30T17:49:33;13.70;85.90
77829;DHT22;67019;51.034;3.728;2023-03-30T17:52:02;13.70;86.20
77829;DHT22;67019;51.034;3.728;2023-03-30T17:54:30;13.60;86.70
77829;DHT22;67019;51.034;3.728;2023-03-30T17:56:58;13.60;86.80
77829;DHT22;67019;51.034;3.728;2023-03-30T17:59:26;13.60;86.70
77829;DHT22;67019;51.034;3.728;2023-03-30T18:01:56;13.50;87.70
77829;DHT22;67019;51.034;3.728;2023-03-30T18:04:24;13.50;87.90
77829;DHT22;67019;51.034;3.728;2023-03-30T18:06:53;13.40;88.80
77829;DHT22;67019;51.034;3.728;2023-03-30T18:09:20;13.30;89.40
77829;DHT22;67019;51.034;3.728;2023-03-30T18:11:48;13.20;89.30
77829;DHT22;67019;51.034;3.728;2023-03-30T18:14:16;13.20;89.00
77829;DHT22;67019;51.034;3.728;2023-03-30T18:16:46;13.30;87.50
77829;DHT22;67019;51.034;3.728;2023-03-30T18:19:14;13.20;88.20
77829;DHT22;67019;51.034;3.728;2023-03-30T18:21:41;13.10;88.40
77829;DHT22;67019;51.034;3.728;2023-03-30T18:24:09;13.10;88.70
77829;DHT22;67019;51.034;3.728;2023-03-30T18:26:36;13.00;89.40
77829;DHT22;67019;51.034;3.728;2023-03-30T18:29:17;12.90;89.90
77829;DHT22;67019;51.034;3.728;2023-03-30T18:31:50;12.90;90.00
77829;DHT22;67019;51.034;3.728;2023-03-30T18:34:17;12.80;90.30
77829;DHT22;67019;51.034;3.728;2023-03-30T18:36:45;12.80;90.40
77829;DHT22;67019;51.034;3.728;2023-03-30T18:39:17;12.80;90.30
77829;DHT22;67019;51.034;3.728;2023-03-30T18:41:47;12.80;90.00
77829;DHT22;67019;51.034;3.728;2023-03-30T18:44:15;12.70;90.30
77829;DHT22;67019;51.034;3.728;2023-03-30T18:46:45;12.60;90.30
77829;DHT22;67019;51.034;3.728;2023-03-30T18:49:13;12.60;90.20
77829;DHT22;67019;51.034;3.728;2023-03-30T18:51:41;12.60;90.00
77829;DHT22;67019;51.034;3.728;2023-03-30T18:54:10;12.50;90.10
77829;DHT22;67019;51.034;3.728;2023-03-30T18:56:38;12.50;89.20
77829;DHT22;67019;51.034;3.728;2023-03-30T18:59:08;12.50;89.30
77829;DHT22;67019;51.034;3.728;2023-03-30T19:01:35;12.50;89.40
77829;DHT22;67019;51.034;3.728;2023-03-30T19:04:05;12.40;89.30
77829;DHT22;67019;51.034;3.728;2023-03-30T19:06:32;12.40;89.30
77829;DHT22;67019;51.034;3.728;2023-03-30T19:09:00;12.40;89.50
77829;DHT22;67019;51.034;3.728;2023-03-30T19:11:28;12.40;89.60
77829;DHT22;67019;51.034;3.728;2023-03-30T19:13:56;12.40;90.00
77829;DHT22;67019;51.034;3.728;2023-03-30T19:16:26;12.30;89.80
77829;DHT22;67019;51.034;3.728;2023-03-30T19:18:53;12.20;89.90
77829;DHT22;67019;51.034;3.728;2023-03-30T19:21:21;12.20;90.20